createdAt,value
2022-12-22T00:02:33.051Z,60.15
2022-12-22T00:05:19.848Z,59.53
2022-12-22T00:08:05.634Z,67.78
2022-12-22T00:10:51.954Z,60.75
2022-12-22T00:13:38.239Z,59.38
2022-12-22T00:16:27.084Z,60.35
2022-12-22T00:19:12.801Z,57.85
2022-12-22T00:21:59.998Z,54.65
2022-12-22T00:24:45.661Z,55.30
2022-12-22T00:27:39.104Z,55.80
2022-12-22T00:30:35.374Z,54.40
2022-12-22T00:33:24.101Z,56.30
2022-12-22T00:36:10.448Z,55.47
2022-12-22T00:38:56.086Z,54.92
2022-12-22T00:41:41.958Z,52.88
2022-12-22T00:44:27.726Z,54.22
2022-12-22T00:47:13.395Z,53.70
2022-12-22T00:50:04.606Z,52.80
2022-12-22T00:52:50.990Z,51.83
2022-12-22T00:55:41.945Z,57.00
2022-12-22T00:58:34.413Z,58.92
2022-12-22T01:01:21.081Z,58.28
2022-12-22T01:04:06.880Z,59.45
2022-12-22T01:06:55.271Z,57.55
2022-12-22T01:09:42.058Z,59.90
2022-12-22T01:12:43.053Z,60.42
2022-12-22T01:15:32.485Z,61.45
2022-12-22T01:18:18.163Z,61.33
2022-12-22T01:21:04.199Z,62.65
2022-12-22T01:26:35.220Z,59.05
2022-12-22T01:29:21.073Z,61.25
2022-12-22T01:32:07.000Z,58.90
2022-12-22T01:37:40.814Z,60.25
2022-12-22T01:40:41.729Z,56.47
2022-12-22T01:43:44.034Z,57.15
2022-12-22T01:46:40.749Z,56.58
2022-12-22T01:49:53.415Z,54.75
2022-12-22T01:52:43.300Z,54.70
2022-12-22T01:55:35.089Z,56.28
2022-12-22T01:58:21.247Z,54.42
2022-12-22T02:01:06.992Z,52.58
2022-12-22T02:03:52.780Z,53.63
2022-12-22T02:06:48.698Z,60.03
2022-12-22T02:09:59.472Z,55.58
2022-12-22T02:13:03.520Z,54.83
2022-12-22T02:16:05.417Z,55.58
2022-12-22T02:19:01.557Z,58.38
2022-12-22T02:21:53.635Z,60.45
2022-12-22T02:25:02.472Z,63.13
2022-12-22T02:27:52.379Z,68.97
2022-12-22T02:30:38.655Z,74.13
2022-12-22T02:33:27.456Z,68.18
2022-12-22T02:36:39.773Z,68.38
2022-12-22T02:39:31.451Z,72.18
2022-12-22T02:42:23.321Z,66.95
2022-12-22T02:45:57.744Z,67.43
2022-12-22T02:48:56.212Z,66.70
2022-12-22T02:51:47.602Z,68.25
2022-12-22T02:54:36.188Z,68.30
2022-12-22T02:57:24.847Z,64.85
2022-12-22T03:00:11.211Z,63.75
2022-12-22T03:02:57.307Z,66.05
2022-12-22T03:05:43.269Z,67.15
2022-12-22T03:08:30.064Z,71.65
2022-12-22T03:11:15.796Z,67.60
2022-12-22T03:14:03.559Z,65.35
2022-12-22T03:16:49.387Z,64.97
2022-12-22T03:19:36.196Z,59.95
2022-12-22T03:22:22.105Z,54.22
2022-12-22T03:25:11.885Z,54.42
2022-12-22T03:27:39.359Z,52.42
2022-12-22T03:30:07.318Z,48.88
2022-12-22T03:32:34.666Z,48.22
2022-12-22T03:35:03.191Z,47.85
2022-12-22T03:37:30.726Z,48.38
2022-12-22T03:39:58.138Z,43.88
2022-12-22T03:42:44.124Z,44.63
2022-12-22T03:45:48.177Z,47.20
2022-12-22T03:50:43.980Z,46.28
2022-12-22T03:53:11.353Z,45.88
2022-12-22T03:55:38.691Z,45.53
2022-12-22T03:58:06.058Z,42.75
2022-12-22T04:00:33.453Z,43.08
2022-12-22T04:03:02.154Z,41.63
2022-12-22T04:05:29.619Z,45.25
2022-12-22T04:07:57.088Z,43.40
2022-12-22T04:10:43.306Z,42.22
2022-12-22T04:13:10.818Z,43.13
2022-12-22T04:15:38.246Z,41.88
2022-12-22T04:18:05.717Z,40.22
2022-12-22T04:20:33.299Z,38.42
2022-12-22T04:23:00.885Z,41.60
2022-12-22T04:25:29.663Z,45.20
2022-12-22T04:27:57.140Z,48.80
2022-12-22T04:30:24.612Z,42.22
2022-12-22T04:32:52.099Z,41.70
2022-12-22T04:35:21.636Z,44.92
2022-12-22T04:37:49.063Z,45.90
2022-12-22T04:40:16.677Z,47.53
2022-12-22T04:42:44.149Z,42.80
2022-12-22T04:45:11.791Z,43.70
2022-12-22T04:47:41.308Z,44.35
2022-12-22T04:50:09.025Z,44.22
2022-12-22T04:52:36.575Z,41.63
2022-12-22T04:55:04.689Z,40.33
2022-12-22T04:57:37.028Z,43.83
2022-12-22T05:00:09.786Z,42.20
2022-12-22T05:02:37.432Z,44.28
2022-12-22T05:05:05.282Z,44.08
2022-12-22T05:07:32.749Z,41.67
2022-12-22T05:10:00.161Z,40.97
2022-12-22T05:12:45.961Z,40.70
2022-12-22T05:15:13.796Z,39.72
2022-12-22T05:17:41.213Z,42.05
2022-12-22T05:20:09.241Z,38.95
2022-12-22T05:22:36.753Z,40.92
2022-12-22T05:25:04.570Z,40.30
2022-12-22T05:27:31.967Z,39.85
2022-12-22T05:29:59.567Z,37.20
2022-12-22T05:32:27.097Z,41.05
2022-12-22T05:34:54.470Z,39.95
2022-12-22T05:37:21.913Z,37.38
2022-12-22T05:39:49.296Z,37.53
2022-12-22T05:42:35.792Z,37.03
2022-12-22T05:45:06.240Z,37.80
2022-12-22T05:47:35.050Z,35.83
2022-12-22T05:50:02.534Z,40.15
2022-12-22T05:52:31.096Z,34.63
2022-12-22T05:54:58.515Z,39.33
2022-12-22T05:57:27.076Z,38.58
2022-12-22T05:59:54.662Z,39.17
2022-12-22T06:02:22.321Z,41.63
2022-12-22T06:04:49.922Z,42.08
2022-12-22T06:07:17.352Z,41.55
2022-12-22T06:09:45.897Z,43.28
2022-12-22T06:12:14.403Z,39.08
2022-12-22T06:14:41.885Z,43.63
2022-12-22T06:17:09.743Z,36.25
2022-12-22T06:19:37.390Z,39.40
2022-12-22T06:22:04.970Z,37.55
2022-12-22T06:24:32.392Z,37.50
2022-12-22T06:26:59.844Z,40.05
2022-12-22T06:29:27.399Z,38.13
2022-12-22T06:31:54.793Z,38.65
2022-12-22T06:34:22.275Z,40.67
2022-12-22T06:36:50.135Z,37.55
2022-12-22T06:39:17.817Z,39.17
2022-12-22T06:42:05.175Z,39.17
2022-12-22T06:44:32.626Z,39.80
2022-12-22T06:47:00.252Z,37.67
2022-12-22T06:49:27.804Z,39.60
2022-12-22T06:51:55.342Z,37.08
2022-12-22T06:54:26.302Z,39.28
2022-12-22T06:56:55.015Z,37.92
2022-12-22T06:59:22.365Z,41.03
2022-12-22T07:01:49.821Z,39.53
2022-12-22T07:04:20.732Z,39.03
2022-12-22T07:06:48.642Z,39.30
2022-12-22T07:09:21.597Z,37.63
2022-12-22T07:11:49.074Z,37.63
2022-12-22T07:14:18.573Z,38.45
2022-12-22T07:16:47.142Z,41.78
2022-12-22T07:19:14.828Z,40.40
2022-12-22T07:21:42.275Z,36.08
2022-12-22T07:24:09.744Z,40.42
2022-12-22T07:26:37.235Z,38.63
2022-12-22T07:29:04.728Z,37.28
2022-12-22T07:32:16.482Z,42.38
2022-12-22T07:35:18.232Z,40.17
2022-12-22T07:38:03.993Z,42.30
2022-12-22T07:40:31.321Z,41.40
2022-12-22T07:43:17.501Z,37.67
2022-12-22T07:46:06.508Z,42.92
2022-12-22T07:49:11.434Z,38.42
2022-12-22T07:51:58.234Z,45.63
2022-12-22T07:54:44.283Z,42.47
2022-12-22T07:57:11.649Z,41.85
2022-12-22T07:59:57.773Z,49.65
2022-12-22T08:02:25.268Z,47.08
2022-12-22T08:05:11.535Z,44.05
2022-12-22T08:07:57.467Z,50.28
2022-12-22T08:10:43.472Z,48.70
2022-12-22T08:13:29.479Z,48.95
2022-12-22T08:18:42.927Z,45.90
2022-12-22T08:21:10.870Z,51.70
2022-12-22T08:23:38.597Z,47.20
2022-12-22T08:26:14.178Z,50.33
2022-12-22T08:29:08.833Z,52.08
2022-12-22T08:31:55.512Z,45.42
2022-12-22T08:34:41.757Z,44.58
2022-12-22T08:37:15.012Z,46.05
2022-12-22T08:39:46.670Z,46.15
2022-12-22T08:42:33.888Z,47.80
2022-12-22T08:45:20.297Z,53.15
2022-12-22T08:47:47.858Z,51.90
2022-12-22T08:50:15.296Z,49.75
2022-12-22T08:52:42.816Z,45.67
2022-12-22T08:55:10.460Z,44.65
2022-12-22T08:57:38.275Z,46.85
2022-12-22T09:00:08.623Z,44.75
2022-12-22T09:02:36.904Z,46.00
2022-12-22T09:05:04.881Z,43.30
2022-12-22T09:07:32.311Z,45.65
2022-12-22T09:10:00.090Z,46.10
2022-12-22T09:12:27.594Z,48.05
2022-12-22T09:14:55.038Z,52.05
2022-12-22T09:17:22.451Z,47.40
2022-12-22T09:19:49.808Z,51.30
2022-12-22T09:22:21.724Z,50.78
2022-12-22T09:24:52.590Z,49.47
2022-12-22T09:27:19.917Z,45.05
2022-12-22T09:29:47.364Z,45.65
2022-12-22T09:32:14.781Z,49.25
2022-12-22T09:34:42.211Z,48.03
2022-12-22T09:37:09.698Z,45.80
2022-12-22T09:39:37.339Z,50.75
2022-12-22T09:42:04.859Z,52.92
2022-12-22T09:44:39.995Z,56.58
2022-12-22T09:47:36.109Z,61.25
2022-12-22T09:50:08.975Z,52.15
2022-12-22T09:52:36.317Z,54.38
2022-12-22T09:55:12.936Z,51.70
2022-12-22T09:57:40.365Z,54.65
2022-12-22T10:00:15.095Z,50.28
2022-12-22T10:02:57.634Z,54.05
2022-12-22T10:05:38.617Z,51.30
2022-12-22T10:08:18.875Z,52.97
2022-12-22T10:10:53.767Z,51.88
2022-12-22T10:13:21.274Z,50.63
2022-12-22T10:15:52.082Z,52.63
2022-12-22T10:18:30.359Z,53.10
2022-12-22T10:21:14.589Z,53.42
2022-12-22T10:23:47.115Z,52.83
2022-12-22T10:26:29.300Z,52.45
2022-12-22T10:29:10.330Z,52.78
2022-12-22T10:32:01.982Z,52.00
2022-12-22T10:34:30.038Z,54.88
2022-12-22T10:37:02.705Z,48.38
2022-12-22T10:39:34.141Z,49.40
2022-12-22T10:42:13.468Z,51.88
2022-12-22T10:44:45.774Z,47.85
2022-12-22T10:47:18.179Z,49.97
2022-12-22T10:49:49.585Z,50.88
2022-12-22T10:52:30.469Z,43.47
2022-12-22T10:55:17.949Z,46.85
2022-12-22T11:00:31.994Z,46.42
2022-12-22T11:03:01.758Z,48.47
2022-12-22T11:05:31.274Z,47.92
2022-12-22T11:08:27.176Z,47.90
2022-12-22T11:11:07.858Z,50.22
2022-12-22T11:13:38.031Z,47.63
2022-12-22T11:16:25.449Z,48.80
2022-12-22T11:19:01.517Z,52.03
2022-12-22T11:21:30.739Z,51.58
2022-12-22T11:24:08.672Z,49.08
2022-12-22T11:27:01.773Z,55.08
2022-12-22T11:29:47.642Z,58.80
2022-12-22T11:35:00.523Z,54.30
2022-12-22T11:37:56.676Z,54.33
2022-12-22T11:40:32.956Z,50.75
2022-12-22T11:43:33.162Z,49.17
2022-12-22T11:46:06.541Z,49.13
2022-12-22T11:48:45.865Z,49.58
2022-12-22T11:51:34.307Z,49.35
2022-12-22T11:54:21.364Z,46.50
2022-12-22T11:57:02.649Z,48.47
2022-12-22T11:59:47.435Z,48.92
2022-12-22T12:02:20.894Z,47.75
2022-12-22T12:05:20.867Z,50.80
2022-12-22T12:07:58.117Z,46.53
2022-12-22T12:10:34.569Z,44.38
2022-12-22T12:13:10.753Z,47.88
2022-12-22T12:15:41.117Z,46.92
2022-12-22T12:18:33.508Z,49.50
2022-12-22T12:21:11.183Z,46.70
2022-12-22T12:23:44.812Z,45.22
2022-12-22T12:26:40.493Z,52.13
2022-12-22T12:29:07.879Z,46.55
2022-12-22T12:31:53.907Z,52.95
2022-12-22T12:34:22.620Z,53.13
2022-12-22T12:37:14.558Z,48.78
2022-12-22T12:39:59.840Z,50.55
2022-12-22T12:42:37.096Z,51.45
2022-12-22T12:45:35.287Z,58.33
2022-12-22T12:48:20.916Z,52.05
2022-12-22T12:50:52.264Z,48.67
2022-12-22T12:53:21.837Z,53.22
2022-12-22T12:55:53.707Z,48.13
2022-12-22T12:58:39.016Z,51.08
2022-12-22T13:01:32.852Z,48.85
2022-12-22T13:04:03.762Z,52.90
2022-12-22T13:07:01.510Z,56.25
2022-12-22T13:12:48.625Z,56.20
2022-12-22T13:15:41.793Z,54.42
2022-12-22T13:18:24.592Z,51.03
2022-12-22T13:21:52.434Z,78.70
2022-12-22T13:24:47.206Z,60.70
2022-12-22T13:27:16.940Z,54.90
2022-12-22T13:29:47.419Z,51.88
2022-12-22T13:32:24.029Z,52.67
2022-12-22T13:35:33.714Z,59.22
2022-12-22T13:38:04.853Z,57.33
2022-12-22T13:40:43.284Z,55.28
2022-12-22T13:43:17.880Z,53.28
2022-12-22T13:45:50.272Z,57.23
2022-12-22T13:48:44.480Z,53.22
2022-12-22T13:51:36.057Z,56.50
2022-12-22T13:54:11.891Z,51.92
2022-12-22T13:56:42.568Z,54.17
2022-12-22T13:59:28.742Z,58.15
2022-12-22T14:02:08.159Z,59.65
2022-12-22T14:04:38.541Z,56.78
2022-12-22T14:07:12.793Z,52.92
2022-12-22T14:09:49.077Z,58.90
2022-12-22T14:12:25.413Z,66.45
2022-12-22T14:14:54.970Z,67.30
2022-12-22T14:17:25.978Z,67.32
2022-12-22T14:19:57.720Z,63.80
2022-12-22T14:22:29.020Z,68.00
2022-12-22T14:25:04.524Z,65.68
2022-12-22T14:30:02.893Z,61.05
2022-12-22T14:32:38.036Z,63.67
2022-12-22T14:35:27.502Z,60.03
2022-12-22T14:38:07.088Z,62.67
2022-12-22T14:40:56.781Z,60.88
2022-12-22T14:43:28.591Z,62.00
2022-12-22T14:46:05.802Z,62.58
2022-12-22T14:48:38.093Z,60.90
2022-12-22T14:51:06.419Z,62.03
2022-12-22T14:53:48.868Z,64.07
2022-12-22T14:56:18.615Z,61.50
2022-12-22T14:59:13.162Z,61.80
2022-12-22T15:01:56.023Z,60.42
2022-12-22T15:04:23.687Z,57.55
2022-12-22T15:06:51.280Z,62.03
2022-12-22T15:09:39.704Z,61.55
2022-12-22T15:12:14.031Z,59.17
2022-12-22T15:14:42.542Z,60.83
2022-12-22T15:17:25.858Z,61.00
2022-12-22T15:19:59.429Z,61.42
2022-12-22T15:22:27.165Z,59.00
2022-12-22T15:24:56.996Z,58.95
2022-12-22T15:27:24.751Z,60.08
2022-12-22T15:29:52.574Z,69.38
2022-12-22T15:32:20.402Z,221.65
2022-12-22T15:34:48.146Z,76.38
2022-12-22T15:37:15.995Z,66.53
2022-12-22T15:39:45.655Z,74.68
2022-12-22T15:42:13.478Z,74.25
2022-12-22T15:44:43.618Z,74.10
2022-12-22T16:01:37.370Z,67.07
2022-12-22T16:49:36.218Z,61.93
2022-12-22T16:50:01.695Z,68.10
2022-12-22T16:52:40.948Z,67.85
2022-12-22T16:55:19.856Z,68.70
2022-12-22T16:57:48.255Z,68.28
2022-12-22T17:00:19.544Z,71.07
2022-12-22T17:02:51.850Z,69.53
2022-12-22T17:05:29.204Z,64.40
2022-12-22T17:11:21.657Z,71.32
2022-12-22T17:13:52.819Z,76.93
2022-12-22T17:16:23.193Z,74.18
2022-12-22T17:18:50.927Z,73.45
2022-12-22T17:21:23.339Z,74.78
2022-12-22T17:24:04.935Z,70.55
2022-12-22T17:26:47.721Z,68.30
2022-12-22T17:29:28.572Z,68.85
2022-12-22T17:31:57.303Z,69.03
2022-12-22T17:34:25.008Z,70.90
2022-12-22T17:36:52.600Z,68.03
2022-12-22T17:39:22.421Z,68.05
2022-12-22T17:41:57.525Z,71.70
2022-12-22T17:44:30.497Z,67.35
2022-12-22T17:46:58.133Z,68.95
2022-12-22T17:49:56.175Z,72.18
2022-12-22T17:52:28.546Z,71.70
2022-12-22T17:54:57.074Z,75.00
2022-12-22T17:57:27.947Z,70.97
2022-12-22T17:59:56.725Z,74.25
2022-12-22T18:02:25.730Z,66.07
2022-12-22T18:04:54.494Z,69.85
2022-12-22T18:07:24.879Z,71.68
2022-12-22T18:09:59.040Z,66.32
2022-12-22T18:12:26.720Z,71.40
2022-12-22T18:14:57.373Z,72.50
2022-12-22T18:17:35.475Z,71.15
2022-12-22T18:20:03.980Z,67.35
2022-12-22T18:22:33.072Z,68.20
2022-12-22T18:25:00.726Z,64.22
2022-12-22T18:27:29.483Z,69.53
2022-12-22T18:29:57.262Z,64.32
2022-12-22T18:32:29.414Z,62.15
2022-12-22T18:34:56.899Z,61.28
2022-12-22T18:37:24.343Z,61.50
2022-12-22T18:39:51.915Z,61.53
2022-12-22T18:42:23.063Z,63.45
2022-12-22T18:44:51.599Z,64.82
2022-12-22T18:47:19.363Z,65.22
2022-12-22T18:49:47.205Z,62.88
2022-12-22T18:52:19.185Z,60.42
2022-12-22T18:54:47.066Z,64.32
2022-12-22T18:57:19.593Z,61.95
2022-12-22T18:59:48.884Z,63.38
2022-12-22T19:02:20.705Z,65.93
2022-12-22T19:04:49.857Z,60.40
2022-12-22T19:07:20.075Z,62.22
2022-12-22T19:09:48.465Z,59.30
2022-12-22T19:12:23.381Z,61.45
2022-12-22T19:14:56.577Z,59.63
2022-12-22T19:17:28.894Z,62.53
2022-12-22T19:19:58.162Z,63.65
2022-12-22T19:22:25.751Z,61.58
2022-12-22T19:24:57.572Z,62.60
2022-12-22T19:27:27.890Z,63.63
2022-12-22T19:30:04.235Z,60.28
2022-12-22T19:32:42.199Z,66.95
2022-12-22T19:35:18.386Z,65.50
2022-12-22T19:37:47.348Z,64.50
2022-12-22T19:40:17.007Z,62.53
2022-12-22T19:42:47.631Z,62.65
2022-12-22T19:45:25.752Z,63.50
2022-12-22T19:47:56.999Z,60.40
2022-12-22T19:50:50.952Z,55.47
2022-12-22T19:53:18.952Z,62.03
2022-12-22T19:55:54.595Z,56.78
2022-12-22T19:58:34.140Z,61.00
2022-12-22T20:01:02.135Z,56.53
2022-12-22T20:03:29.913Z,55.42
2022-12-22T20:05:57.733Z,55.97
2022-12-22T20:08:25.720Z,59.55
2022-12-22T20:10:58.336Z,57.53
2022-12-22T20:13:31.563Z,56.03
2022-12-22T20:16:02.366Z,55.28
2022-12-22T20:18:37.738Z,57.78
2022-12-22T20:21:12.642Z,58.17
2022-12-22T20:23:41.019Z,60.22
2022-12-22T20:26:19.395Z,58.03
2022-12-22T20:28:49.800Z,58.78
2022-12-22T20:31:20.567Z,55.63
2022-12-22T20:33:49.057Z,57.55
2022-12-22T20:36:32.149Z,56.38
2022-12-22T20:39:01.516Z,57.22
2022-12-22T20:41:32.115Z,55.00
2022-12-22T20:44:04.944Z,51.92
2022-12-22T20:56:37.008Z,61.40
2022-12-22T20:59:23.887Z,57.13
2022-12-22T21:01:52.918Z,55.42
2022-12-22T21:04:27.834Z,55.90
2022-12-22T21:07:25.484Z,55.92
2022-12-22T21:09:53.290Z,52.60
2022-12-22T21:12:20.950Z,56.80
2022-12-22T21:14:49.562Z,54.15
2022-12-22T21:17:19.159Z,58.03
2022-12-22T21:19:46.973Z,54.58
2022-12-22T21:22:14.787Z,52.40
2022-12-22T21:24:44.015Z,58.85
2022-12-22T21:27:20.448Z,54.05
2022-12-22T21:30:26.899Z,55.35
2022-12-22T21:32:55.269Z,54.30
2022-12-22T21:35:29.314Z,54.42
2022-12-22T21:37:59.976Z,59.88
2022-12-22T21:40:30.104Z,54.67
2022-12-22T21:42:58.263Z,54.05
2022-12-22T21:45:29.915Z,57.47
2022-12-22T21:48:02.240Z,54.50
2022-12-22T21:50:32.672Z,56.72
2022-12-22T21:53:01.636Z,59.10
2022-12-22T21:55:32.391Z,55.00
2022-12-22T21:58:00.907Z,54.88
2022-12-22T22:00:30.188Z,55.58
2022-12-22T22:03:23.646Z,52.17
2022-12-22T22:05:52.063Z,52.70
2022-12-22T22:08:19.735Z,56.25
2022-12-22T22:10:47.442Z,57.20
2022-12-22T22:13:15.691Z,58.90
2022-12-22T22:15:44.088Z,53.47
2022-12-22T22:18:19.784Z,58.78
2022-12-22T22:20:48.072Z,58.15
2022-12-22T22:23:15.941Z,54.83
2022-12-22T22:25:43.710Z,54.95
2022-12-22T22:28:11.908Z,53.25
2022-12-22T22:30:41.999Z,54.65
2022-12-22T22:33:19.835Z,55.40
2022-12-22T22:35:47.766Z,55.20
2022-12-22T22:38:19.298Z,55.20
2022-12-22T22:40:48.343Z,53.70
2022-12-22T22:43:17.391Z,55.25
2022-12-22T22:45:46.747Z,53.47
2022-12-22T22:48:26.738Z,52.40
2022-12-22T22:50:57.200Z,54.17
2022-12-22T22:53:27.046Z,53.53
2022-12-22T22:55:54.884Z,57.38
2022-12-22T22:58:22.654Z,55.20
2022-12-22T23:00:50.311Z,55.20
2022-12-22T23:03:18.193Z,54.95
2022-12-22T23:05:46.149Z,53.78
2022-12-22T23:08:13.836Z,56.90
2022-12-22T23:10:53.353Z,55.80
2022-12-22T23:13:21.276Z,60.67
2022-12-22T23:16:03.693Z,60.22
2022-12-22T23:18:32.465Z,59.60
2022-12-22T23:21:02.266Z,59.78
2022-12-22T23:23:32.088Z,59.65
2022-12-22T23:25:59.907Z,58.80
2022-12-22T23:28:27.631Z,58.83
2022-12-22T23:30:55.376Z,58.63
2022-12-22T23:33:23.053Z,55.33
2022-12-22T23:35:51.269Z,56.05
2022-12-22T23:38:23.785Z,61.75
2022-12-22T23:40:53.431Z,59.67
2022-12-22T23:43:22.429Z,56.85
2022-12-22T23:45:49.967Z,55.75
2022-12-22T23:48:17.783Z,53.35
2022-12-22T23:50:48.685Z,57.95
2022-12-22T23:53:17.006Z,55.97
2022-12-22T23:55:45.745Z,53.45
2022-12-22T23:58:14.212Z,57.08
